Time;durP1;ratioP1;P1;durP2;ratioP2;P2;SDS_P1;SDS_P2;PMS_P1;PMS_P2;Temp;Humidity;BMP_temperature;BMP_pressure;BME280_temperature;BME280_humidity;BME280_pressure;Samples;Min_cycle;Max_cycle;Signal;HPM_P1;HPM_P2
2022/10/01 00:01:58;;;;;;;11.35;10.30;;;5.90;99.90;;;;;;5003425;28;20042;-59
2022/10/01 00:04:25;;;;;;;12.50;11.30;;;5.90;99.90;;;;;;4999749;28;20045;-59
2022/10/01 00:06:51;;;;;;;12.18;11.07;;;5.90;99.90;;;;;;4999875;28;20022;-58
2022/10/01 00:09:16;;;;;;;12.35;11.15;;;5.80;99.90;;;;;;4998084;28;20795;-61
2022/10/01 00:11:42;;;;;;;19.23;13.57;;;5.80;99.90;;;;;;4999537;28;20032;-60
2022/10/01 00:14:08;;;;;;;15.75;11.48;;;5.80;99.90;;;;;;5003902;28;20031;-59
2022/10/01 00:16:34;;;;;;;13.95;12.63;;;5.80;99.90;;;;;;4999497;28;20482;-60
2022/10/01 00:18:59;;;;;;;16.17;12.25;;;5.80;99.90;;;;;;5002754;28;20030;-60
2022/10/01 00:21:28;;;;;;;21.10;13.45;;;5.80;99.90;;;;;;4999064;28;20050;-60
2022/10/01 00:23:59;;;;;;;13.02;11.60;;;5.80;99.90;;;;;;5001168;28;20022;-60
2022/10/01 00:26:28;;;;;;;12.82;11.52;;;5.80;99.90;;;;;;4998548;28;20029;-60
2022/10/01 00:28:56;;;;;;;17.10;11.85;;;5.80;99.90;;;;;;4997204;28;20030;-60
2022/10/01 00:31:23;;;;;;;13.00;11.80;;;5.80;99.90;;;;;;5000853;28;20038;-59
2022/10/01 00:33:52;;;;;;;14.48;11.23;;;5.80;99.90;;;;;;4998825;28;20029;-60
2022/10/01 00:36:17;;;;;;;13.20;11.90;;;5.80;99.90;;;;;;5001183;28;20534;-60
2022/10/01 00:38:45;;;;;;;13.80;11.68;;;5.80;99.90;;;;;;4997005;28;20117;-60
2022/10/01 00:41:11;;;;;;;13.07;11.88;;;5.90;99.90;;;;;;5001384;28;20027;-59
2022/10/01 00:43:41;;;;;;;12.75;11.45;;;6.00;99.90;;;;;;4997239;28;20900;-60
2022/10/01 00:46:21;;;;;;;13.75;12.43;;;6.00;99.90;;;;;;4997791;28;20026;-59
2022/10/01 00:49:01;;;;;;;20.95;11.25;;;6.10;99.90;;;;;;4999936;28;20030;-60
2022/10/01 00:51:35;;;;;;;12.52;10.30;;;6.10;99.90;;;;;;5000195;28;20467;-59
2022/10/01 00:54:11;;;;;;;13.07;11.80;;;6.10;99.90;;;;;;5001823;28;20034;-59
2022/10/01 00:56:37;;;;;;;13.35;12.02;;;6.00;99.90;;;;;;5000800;28;20040;-59
2022/10/01 00:59:05;;;;;;;12.90;11.77;;;6.00;99.90;;;;;;5002248;28;20041;-59
2022/10/01 01:01:34;;;;;;;15.20;11.50;;;6.00;99.90;;;;;;5000357;28;20494;-60
2022/10/01 01:04:00;;;;;;;12.32;10.98;;;6.00;99.90;;;;;;4996003;28;20018;-60
2022/10/01 01:06:26;;;;;;;13.85;10.85;;;6.10;99.90;;;;;;5000778;28;20399;-60
2022/10/01 01:08:53;;;;;;;14.60;10.75;;;6.00;99.90;;;;;;4999197;28;20240;-60
2022/10/01 01:11:32;;;;;;;12.85;11.00;;;6.00;99.90;;;;;;4999134;28;20057;-59
2022/10/01 01:14:28;;;;;;;15.93;11.57;;;6.00;99.90;;;;;;4999436;28;20033;-60
2022/10/01 01:17:07;;;;;;;12.27;11.00;;;6.00;99.90;;;;;;4997916;28;20060;-60
2022/10/01 01:20:04;;;;;;;12.63;11.32;;;6.00;99.90;;;;;;4997536;28;20097;-59
2022/10/01 01:22:34;;;;;;;12.73;10.77;;;5.90;99.90;;;;;;4999100;28;20096;-60
2022/10/01 01:25:16;;;;;;;13.50;11.25;;;5.90;99.90;;;;;;4998807;28;20566;-59
2022/10/01 01:27:48;;;;;;;15.13;10.88;;;5.90;99.90;;;;;;4996344;28;20046;-60
2022/10/01 01:30:16;;;;;;;13.43;10.98;;;5.90;99.90;;;;;;4995713;28;20065;-58
2022/10/01 01:33:03;;;;;;;16.35;10.25;;;5.90;99.90;;;;;;4998361;28;20030;-59
2022/10/01 01:35:33;;;;;;;12.60;11.27;;;5.80;99.90;;;;;;4996284;28;20161;-59
2022/10/01 01:38:05;;;;;;;12.80;11.10;;;5.80;99.90;;;;;;4997636;28;20031;-60
2022/10/01 01:40:35;;;;;;;11.80;9.95;;;5.80;99.90;;;;;;4996489;28;20027;-60
2022/10/01 01:43:04;;;;;;;13.50;11.98;;;5.80;99.90;;;;;;4993505;28;20022;-60
2022/10/01 01:45:34;;;;;;;12.98;11.70;;;5.80;99.90;;;;;;4998588;28;20076;-59
2022/10/01 01:48:01;;;;;;;14.48;12.07;;;5.80;99.90;;;;;;4997294;28;20029;-59
2022/10/01 01:50:33;;;;;;;11.15;10.02;;;5.80;99.90;;;;;;4997635;28;20041;-60
2022/10/01 01:52:59;;;;;;;11.48;10.20;;;5.80;99.90;;;;;;4994680;28;20045;-59
2022/10/01 01:55:27;;;;;;;11.98;10.88;;;5.80;99.90;;;;;;4997675;28;20057;-59
2022/10/01 01:57:55;;;;;;;13.63;10.60;;;5.80;99.90;;;;;;4998680;28;20088;-60
2022/10/01 02:00:21;;;;;;;13.40;10.52;;;5.80;99.90;;;;;;4996952;28;20024;-59
2022/10/01 02:02:51;;;;;;;11.27;9.90;;;5.80;99.90;;;;;;4999518;28;20076;-59
2022/10/01 02:05:27;;;;;;;11.13;9.93;;;5.80;99.90;;;;;;4996655;28;20145;-60
2022/10/01 02:08:11;;;;;;;10.70;9.80;;;5.70;99.90;;;;;;4995280;28;20034;-60
2022/10/01 02:11:03;;;;;;;11.38;10.25;;;5.70;99.90;;;;;;4998723;28;20462;-60
2022/10/01 02:13:44;;;;;;;12.00;10.50;;;5.70;99.90;;;;;;4994722;28;20041;-60
2022/10/01 02:16:17;;;;;;;;;;;5.70;99.90;;;;;;4996796;28;20026;-60
2022/10/01 02:19:04;;;;;;;12.60;11.05;;;5.60;99.90;;;;;;4997121;28;19920;-61
2022/10/01 02:21:36;;;;;;;12.50;11.23;;;5.60;99.90;;;;;;5000337;28;20034;-58
2022/10/01 02:24:04;;;;;;;17.17;11.10;;;5.60;99.90;;;;;;4993738;28;20033;-60
2022/10/01 02:26:31;;;;;;;17.20;12.13;;;5.60;99.90;;;;;;4995821;28;20041;-59
2022/10/01 02:29:02;;;;;;;14.88;12.93;;;5.60;99.90;;;;;;4998587;28;20165;-61
2022/10/01 02:31:29;;;;;;;;;;;5.60;99.90;;;;;;4996560;28;20391;-60
2022/10/01 02:33:57;;;;;;;14.48;12.95;;;5.60;99.90;;;;;;4995636;28;19928;-60
2022/10/01 02:36:24;;;;;;;14.40;12.95;;;5.60;99.90;;;;;;5000183;28;20022;-59
2022/10/01 02:38:52;;;;;;;15.18;12.80;;;5.60;99.90;;;;;;4995881;28;20153;-59
2022/10/01 02:41:23;;;;;;;16.25;12.70;;;5.60;99.90;;;;;;4995898;28;20125;-60
2022/10/01 02:43:55;;;;;;;17.88;11.57;;;5.60;99.90;;;;;;4996780;28;20491;-59
2022/10/01 02:46:47;;;;;;;15.50;12.40;;;5.60;99.90;;;;;;4995829;28;20034;-59
2022/10/01 02:49:13;;;;;;;16.08;13.93;;;5.60;99.90;;;;;;4993546;28;20030;-59
2022/10/01 02:51:57;;;;;;;14.75;13.07;;;5.60;99.90;;;;;;4996539;28;20026;-59
2022/10/01 02:54:29;;;;;;;20.95;15.02;;;5.60;99.90;;;;;;4996476;28;20043;-59
2022/10/01 02:59:41;;;;;;;16.13;14.32;;;5.60;99.90;;;;;;4996917;28;20130;-59
2022/10/01 03:02:06;;;;;;;17.73;15.73;;;5.60;99.90;;;;;;4998267;28;20121;-58
2022/10/01 03:04:32;;;;;;;15.75;14.15;;;5.60;99.90;;;;;;4994744;28;20049;-59
2022/10/01 03:07:02;;;;;;;17.20;15.38;;;5.60;99.90;;;;;;4994456;28;20084;-60
2022/10/01 03:09:33;;;;;;;16.95;14.95;;;5.60;99.90;;;;;;4994377;28;20038;-60
2022/10/01 03:12:00;;;;;;;18.35;16.42;;;5.60;99.90;;;;;;4996210;28;20026;-59
2022/10/01 03:14:26;;;;;;;17.13;15.43;;;5.60;99.90;;;;;;4996042;28;20042;-60
2022/10/01 03:16:52;;;;;;;18.98;16.23;;;5.70;99.90;;;;;;4996289;28;20060;-59
2022/10/01 03:19:18;;;;;;;18.25;16.40;;;5.70;99.90;;;;;;4997390;28;20046;-59
2022/10/01 03:21:44;;;;;;;20.08;16.17;;;5.80;99.90;;;;;;4995573;28;20644;-59
2022/10/01 03:24:10;;;;;;;22.60;16.52;;;5.70;99.90;;;;;;4992860;28;20550;-60
2022/10/01 03:26:36;;;;;;;25.05;16.77;;;5.80;99.90;;;;;;4999425;28;20498;-61
2022/10/01 03:29:02;;;;;;;22.70;16.75;;;5.90;99.90;;;;;;4999044;28;20069;-59
2022/10/01 03:31:28;;;;;;;30.73;18.42;;;6.00;99.90;;;;;;4996534;28;20125;-59
2022/10/01 03:33:53;;;;;;;18.83;16.98;;;6.00;99.90;;;;;;4996246;28;20521;-60
2022/10/01 03:36:19;;;;;;;20.33;15.82;;;6.00;99.90;;;;;;4999219;28;20060;-60
2022/10/01 03:38:45;;;;;;;18.17;15.25;;;6.10;99.90;;;;;;4996916;28;20056;-59
2022/10/01 03:41:10;;;;;;;17.77;15.63;;;6.10;99.90;;;;;;4994103;28;20026;-59
2022/10/01 03:43:36;;;;;;;21.42;16.05;;;6.10;99.90;;;;;;4994592;28;20026;-59
2022/10/01 03:46:01;;;;;;;18.73;16.40;;;6.10;99.90;;;;;;4998324;28;20086;-60
2022/10/01 03:48:28;;;;;;;26.65;17.50;;;6.10;99.90;;;;;;4995999;28;20041;-60
2022/10/01 03:50:56;;;;;;;19.45;17.33;;;6.20;99.90;;;;;;4995842;28;20040;-60
2022/10/01 03:53:22;;;;;;;25.17;18.52;;;6.20;99.90;;;;;;4999590;28;20753;-60
2022/10/01 03:55:48;;;;;;;19.73;17.17;;;6.20;99.90;;;;;;5000724;28;20573;-59
2022/10/01 03:58:14;;;;;;;28.23;18.13;;;6.20;99.90;;;;;;4998394;28;20044;-61
2022/10/01 04:00:39;;;;;;;23.17;17.52;;;6.20;99.90;;;;;;5001364;28;20117;-59
2022/10/01 04:03:05;;;;;;;21.15;17.92;;;6.20;99.90;;;;;;4998563;28;20043;-59
2022/10/01 04:05:31;;;;;;;21.30;18.25;;;6.20;99.90;;;;;;5000162;28;20080;-60
2022/10/01 04:07:58;;;;;;;20.33;17.58;;;6.20;99.90;;;;;;4999178;28;20551;-57
2022/10/01 04:10:24;;;;;;;27.98;19.52;;;6.30;99.90;;;;;;5001118;28;20058;-60
2022/10/01 04:12:49;;;;;;;29.85;19.02;;;6.30;99.90;;;;;;5001799;28;20116;-59
2022/10/01 04:15:15;;;;;;;26.52;17.90;;;6.30;99.90;;;;;;5004043;28;20029;-59
2022/10/01 04:17:41;;;;;;;22.83;18.27;;;6.30;99.90;;;;;;4998277;28;20026;-59
2022/10/01 04:20:07;;;;;;;29.95;18.40;;;6.30;99.90;;;;;;4993321;28;20110;-59
2022/10/01 04:22:39;;;;;;;26.60;18.98;;;6.30;99.90;;;;;;5003289;28;20029;-59
2022/10/01 04:25:09;;;;;;;33.47;19.13;;;6.20;99.90;;;;;;4998684;28;20534;-59
2022/10/01 04:27:39;;;;;;;26.17;20.40;;;6.20;99.90;;;;;;4999504;28;20028;-60
2022/10/01 04:30:07;;;;;;;26.00;19.83;;;6.20;99.90;;;;;;4999659;28;20061;-60
2022/10/01 04:32:33;;;;;;;30.83;20.05;;;6.20;99.90;;;;;;4997453;28;20033;-59
2022/10/01 04:35:01;;;;;;;29.23;19.38;;;6.30;99.90;;;;;;4997783;28;20383;-59
2022/10/01 04:37:27;;;;;;;24.83;18.83;;;6.30;99.90;;;;;;4998763;28;20034;-60
2022/10/01 04:39:53;;;;;;;27.55;19.85;;;6.30;99.90;;;;;;5000789;28;20037;-60
2022/10/01 04:42:20;;;;;;;30.05;19.90;;;6.30;99.90;;;;;;4995144;28;20026;-60
2022/10/01 04:44:45;;;;;;;26.40;20.88;;;6.30;99.90;;;;;;4995359;28;20031;-60
2022/10/01 04:47:11;;;;;;;25.63;18.90;;;6.30;99.90;;;;;;4978316;28;20553;-59
2022/10/01 04:49:40;;;;;;;25.63;18.90;;;6.30;99.90;;;;;;4994929;28;20038;-59
2022/10/01 04:52:05;;;;;;;26.10;19.13;;;6.30;99.90;;;;;;4986761;28;20825;-60
2022/10/01 04:54:31;;;;;;;24.42;19.42;;;6.30;99.90;;;;;;4997082;28;20085;-59
2022/10/01 04:56:57;;;;;;;30.73;20.63;;;6.30;99.90;;;;;;4995655;28;20026;-59
2022/10/01 04:59:24;;;;;;;28.08;18.63;;;6.30;99.90;;;;;;4998219;28;20096;-59
2022/10/01 05:01:50;;;;;;;28.13;17.88;;;6.30;99.90;;;;;;4995208;28;20030;-59
2022/10/01 05:04:16;;;;;;;23.50;19.15;;;6.30;99.90;;;;;;4994238;28;20101;-60
2022/10/01 05:06:41;;;;;;;22.17;17.80;;;6.30;99.90;;;;;;4995173;28;20034;-60
2022/10/01 05:09:07;;;;;;;27.33;19.60;;;6.30;99.90;;;;;;5001518;28;20034;-59
2022/10/01 05:11:37;;;;;;;28.63;20.35;;;6.20;99.90;;;;;;4998502;28;20057;-59
2022/10/01 05:14:03;;;;;;;30.00;19.50;;;6.20;99.90;;;;;;4994116;28;20093;-60
2022/10/01 05:16:28;;;;;;;32.58;20.25;;;6.20;99.90;;;;;;5002754;28;20800;-59
2022/10/01 05:18:54;;;;;;;27.65;19.80;;;6.20;99.90;;;;;;4997891;28;20038;-58
2022/10/01 05:21:20;;;;;;;28.33;19.67;;;6.30;99.90;;;;;;4999597;28;20034;-60
2022/10/01 05:23:45;;;;;;;30.48;20.15;;;6.30;99.90;;;;;;4997091;28;20396;-59
2022/10/01 05:26:11;;;;;;;29.50;20.17;;;6.30;99.90;;;;;;4991316;28;20089;-59
2022/10/01 05:28:43;;;;;;;26.50;18.92;;;6.20;99.90;;;;;;4999898;28;20044;-59
2022/10/01 05:31:09;;;;;;;24.73;18.48;;;6.30;99.90;;;;;;4997110;28;20096;-59
2022/10/01 05:33:35;;;;;;;27.05;18.83;;;6.30;99.90;;;;;;4995712;28;20050;-60
2022/10/01 05:36:02;;;;;;;31.40;19.95;;;6.30;99.90;;;;;;4998088;28;20502;-59
2022/10/01 05:38:28;;;;;;;27.63;19.90;;;6.40;99.90;;;;;;4995026;28;20030;-60
2022/10/01 05:40:53;;;;;;;29.95;19.23;;;6.40;99.90;;;;;;4996208;28;20372;-59
2022/10/01 05:43:19;;;;;;;33.60;19.58;;;6.40;99.90;;;;;;4997943;28;20038;-59
2022/10/01 05:45:45;;;;;;;28.83;20.20;;;6.50;99.90;;;;;;4997031;28;20976;-59
2022/10/01 05:48:11;;;;;;;27.40;20.40;;;6.50;99.90;;;;;;4999340;28;20121;-59
2022/10/01 05:50:39;;;;;;;30.08;18.70;;;6.60;99.90;;;;;;4995655;28;20402;-59
2022/10/01 05:53:06;;;;;;;22.40;19.20;;;6.60;99.90;;;;;;4999964;28;20041;-59
2022/10/01 05:55:35;;;;;;;29.98;19.83;;;6.70;99.90;;;;;;4999917;28;20080;-60
2022/10/01 05:58:03;;;;;;;25.40;19.30;;;6.80;99.90;;;;;;4995245;28;20021;-59
2022/10/01 06:00:30;;;;;;;25.20;19.02;;;6.90;99.90;;;;;;4998421;28;20472;-60
2022/10/01 06:02:57;;;;;;;27.95;19.30;;;6.90;99.90;;;;;;4998673;28;20069;-60
2022/10/01 06:05:23;;;;;;;28.42;19.15;;;7.00;99.90;;;;;;4993961;28;20037;-59
2022/10/01 06:07:49;;;;;;;30.17;21.00;;;7.00;99.90;;;;;;4993865;28;20525;-60
2022/10/01 06:10:15;;;;;;;32.90;21.20;;;7.00;99.90;;;;;;5000087;28;20034;-60
2022/10/01 06:12:44;;;;;;;34.15;22.70;;;7.10;99.90;;;;;;4997631;28;20030;-59
2022/10/01 06:15:13;;;;;;;31.33;21.10;;;7.10;99.90;;;;;;4995152;28;20030;-60
2022/10/01 06:17:43;;;;;;;32.17;21.67;;;7.10;99.90;;;;;;4992963;28;20490;-60
2022/10/01 06:20:11;;;;;;;36.72;21.98;;;7.20;99.90;;;;;;4991881;28;20041;-60
2022/10/01 06:22:38;;;;;;;29.65;21.35;;;7.20;99.90;;;;;;4997814;28;20378;-59
2022/10/01 06:25:05;;;;;;;26.70;20.92;;;7.30;99.90;;;;;;4995338;28;20018;-58
2022/10/01 06:27:30;;;;;;;27.92;20.80;;;7.30;99.90;;;;;;4996469;28;20018;-58
2022/10/01 06:29:56;;;;;;;30.33;21.20;;;7.30;99.90;;;;;;4997774;28;20093;-59
2022/10/01 06:32:21;;;;;;;28.52;20.92;;;7.40;99.90;;;;;;4995570;28;20146;-60
2022/10/01 06:34:47;;;;;;;32.78;21.60;;;7.40;99.90;;;;;;4996449;28;20030;-59
2022/10/01 06:37:12;;;;;;;35.13;21.33;;;7.40;99.90;;;;;;4996689;28;20061;-59
2022/10/01 06:39:38;;;;;;;35.38;21.95;;;7.50;99.90;;;;;;4993814;28;20486;-59
2022/10/01 06:42:04;;;;;;;39.13;22.55;;;7.50;99.90;;;;;;4997768;28;20033;-59
2022/10/01 06:44:29;;;;;;;31.60;21.30;;;7.60;99.90;;;;;;4998385;28;20037;-59
2022/10/01 06:46:55;;;;;;;31.50;21.45;;;7.60;99.90;;;;;;4995774;28;20037;-59
2022/10/01 06:49:21;;;;;;;31.75;20.52;;;7.60;99.90;;;;;;4998079;28;20495;-59
2022/10/01 06:54:31;;;;;;;32.38;20.10;;;7.70;99.90;;;;;;4999444;28;20041;-60
2022/10/01 06:56:57;;;;;;;28.38;20.98;;;7.80;99.90;;;;;;4995980;28;20026;-59
2022/10/01 06:59:22;;;;;;;25.98;18.67;;;7.80;99.90;;;;;;5000067;28;20164;-59
2022/10/01 07:01:49;;;;;;;24.77;18.27;;;7.90;99.90;;;;;;4993568;28;20035;-59
2022/10/01 07:04:15;;;;;;;32.35;18.48;;;7.90;99.90;;;;;;4995759;28;20030;-59
2022/10/01 07:06:40;;;;;;;23.38;17.83;;;8.00;99.90;;;;;;4998403;28;20379;-59
2022/10/01 07:09:06;;;;;;;22.88;17.65;;;8.00;99.90;;;;;;4994618;28;20513;-59
2022/10/01 07:11:31;;;;;;;25.27;17.10;;;8.10;99.90;;;;;;4996398;28;20201;-59
2022/10/01 07:13:57;;;;;;;22.13;16.67;;;8.10;99.90;;;;;;4994646;28;20026;-59
2022/10/01 07:16:23;;;;;;;32.33;16.08;;;8.20;99.90;;;;;;4994998;28;20027;-59
2022/10/01 07:18:48;;;;;;;20.88;15.90;;;8.20;99.90;;;;;;4993990;28;20500;-60
2022/10/01 07:21:14;;;;;;;16.27;14.68;;;8.30;99.90;;;;;;4997721;28;20053;-59
2022/10/01 07:23:40;;;;;;;18.20;14.50;;;8.30;99.90;;;;;;4995425;28;20034;-59
2022/10/01 07:26:07;;;;;;;17.38;15.68;;;8.40;99.90;;;;;;4995403;28;20018;-59
2022/10/01 07:28:33;;;;;;;15.75;13.75;;;8.50;99.90;;;;;;4993712;28;20666;-59
2022/10/01 07:31:01;;;;;;;16.30;14.80;;;8.50;99.90;;;;;;4999797;28;20034;-60
2022/10/01 07:33:27;;;;;;;17.90;14.38;;;8.60;99.90;;;;;;4998072;28;20100;-59
2022/10/01 07:35:53;;;;;;;19.70;15.32;;;8.60;99.90;;;;;;5001195;28;20479;-59
2022/10/01 07:38:18;;;;;;;15.82;14.18;;;8.60;99.90;;;;;;4998563;28;20026;-59
2022/10/01 07:40:50;;;;;;;16.02;14.50;;;8.70;99.90;;;;;;4997846;28;20031;-59
2022/10/01 07:43:15;;;;;;;18.10;15.85;;;8.70;99.90;;;;;;5000504;28;20133;-59
2022/10/01 07:45:42;;;;;;;18.85;14.80;;;8.70;99.90;;;;;;4999699;28;20177;-60
2022/10/01 07:48:08;;;;;;;18.88;15.05;;;8.70;99.90;;;;;;5002937;28;20027;-59
2022/10/01 07:50:34;;;;;;;15.73;14.23;;;8.80;99.90;;;;;;4999521;28;20561;-60
2022/10/01 07:52:59;;;;;;;16.70;15.10;;;8.80;99.90;;;;;;5001718;28;20030;-59
2022/10/01 07:55:27;;;;;;;17.08;15.38;;;8.90;99.90;;;;;;5002215;28;20117;-60
2022/10/01 07:57:54;;;;;;;20.60;16.75;;;8.90;99.90;;;;;;5000682;28;20529;-59
2022/10/01 08:00:21;;;;;;;18.67;16.77;;;8.90;99.90;;;;;;5002466;28;20202;-59
2022/10/01 08:02:52;;;;;;;19.23;16.85;;;9.00;99.90;;;;;;4999950;28;20018;-59
2022/10/01 08:05:19;;;;;;;;;;;9.00;99.90;;;;;;4999318;28;20034;-59
2022/10/01 08:07:45;;;;;;;19.00;15.95;;;9.10;99.90;;;;;;5001789;28;19909;-60
2022/10/01 08:10:11;;;;;;;17.13;15.48;;;9.10;99.90;;;;;;4997029;28;20399;-60
2022/10/01 08:12:37;;;;;;;16.60;15.02;;;9.10;99.90;;;;;;5001276;28;20180;-59
2022/10/01 08:15:09;;;;;;;18.23;14.70;;;9.10;99.90;;;;;;4995206;28;20757;-60
2022/10/01 08:17:34;;;;;;;;;;;9.10;99.90;;;;;;4998782;28;20126;-59
2022/10/01 08:20:00;;;;;;;16.52;14.15;;;9.10;99.90;;;;;;4999573;28;20007;-57
2022/10/01 08:22:26;;;;;;;18.45;14.55;;;9.10;99.90;;;;;;4996117;28;20057;-60
2022/10/01 08:24:52;;;;;;;15.18;13.18;;;9.00;99.90;;;;;;5001574;28;20026;-59
2022/10/01 08:27:18;;;;;;;21.10;14.27;;;9.00;99.90;;;;;;4998672;28;20103;-60
2022/10/01 08:29:44;;;;;;;16.23;14.15;;;9.00;99.90;;;;;;4998705;28;20046;-59
2022/10/01 08:32:10;;;;;;;23.50;15.50;;;9.00;99.90;;;;;;4998506;28;20038;-59
2022/10/01 08:34:35;;;;;;;29.80;16.40;;;9.00;99.90;;;;;;4997812;28;20414;-60
2022/10/01 08:37:01;;;;;;;20.77;16.08;;;9.00;99.90;;;;;;5001033;28;20026;-60
2022/10/01 08:39:27;;;;;;;32.67;17.10;;;9.00;99.90;;;;;;4996091;28;20034;-60
2022/10/01 08:42:12;;;;;;;31.48;17.60;;;9.00;99.90;;;;;;4999628;28;20034;-61
2022/10/01 08:44:44;;;;;;;19.50;16.85;;;9.00;99.90;;;;;;4998718;28;20033;-59
2022/10/01 08:47:16;;;;;;;30.58;17.50;;;9.00;99.90;;;;;;4996519;28;20058;-58
2022/10/01 08:49:50;;;;;;;21.58;16.33;;;9.00;99.90;;;;;;5000426;28;20034;-59
2022/10/01 08:52:27;;;;;;;26.58;16.75;;;9.00;99.90;;;;;;5000700;28;20030;-61
2022/10/01 08:55:04;;;;;;;18.00;14.27;;;9.10;99.90;;;;;;4996583;28;20026;-60
2022/10/01 08:57:42;;;;;;;17.83;13.00;;;9.10;99.90;;;;;;5000675;28;20052;-60
2022/10/01 09:00:13;;;;;;;18.45;13.88;;;9.10;99.90;;;;;;4996597;28;20062;-60
2022/10/01 09:02:41;;;;;;;15.75;12.27;;;9.10;99.90;;;;;;5000801;28;20042;-60
2022/10/01 09:05:34;;;;;;;13.57;10.48;;;9.10;99.90;;;;;;4997923;28;20048;-60
2022/10/01 09:08:44;;;;;;;14.43;11.18;;;9.10;99.90;;;;;;5000767;28;20042;-60
2022/10/01 09:11:33;;;;;;;13.93;10.63;;;9.10;99.90;;;;;;4984475;28;20192;-60
2022/10/01 09:14:29;;;;;;;15.63;11.45;;;9.10;99.90;;;;;;4983114;28;20065;-60
2022/10/01 09:17:09;;;;;;;11.77;10.15;;;9.10;99.90;;;;;;4994290;28;20410;-60
2022/10/01 09:19:56;;;;;;;12.38;10.95;;;9.10;99.90;;;;;;4993764;28;20031;-60
2022/10/01 09:22:33;;;;;;;11.95;10.15;;;9.20;99.90;;;;;;4999632;28;20465;-60
2022/10/01 09:25:13;;;;;;;11.85;9.50;;;9.20;99.90;;;;;;4997152;28;20418;-61
2022/10/01 09:27:40;;;;;;;11.32;8.57;;;9.20;99.90;;;;;;4997109;28;20026;-60
2022/10/01 09:30:14;;;;;;;14.18;8.68;;;9.20;99.90;;;;;;4995834;28;20034;-60
2022/10/01 09:33:02;;;;;;;11.35;8.48;;;9.20;99.90;;;;;;4996865;28;20034;-60
2022/10/01 09:35:42;;;;;;;9.98;8.73;;;9.20;99.90;;;;;;4996797;28;20081;-61
2022/10/01 09:38:20;;;;;;;12.00;8.05;;;9.20;99.90;;;;;;4993650;28;20442;-59
2022/10/01 09:40:45;;;;;;;9.52;8.55;;;9.20;99.90;;;;;;4996616;28;20450;-60
2022/10/01 09:43:11;;;;;;;11.85;8.43;;;9.20;99.90;;;;;;5000221;28;20050;-59
2022/10/01 09:45:37;;;;;;;10.15;8.02;;;9.20;99.90;;;;;;4997081;28;20061;-60
2022/10/01 09:48:16;;;;;;;7.05;6.35;;;9.30;99.90;;;;;;4992741;28;20145;-60
2022/10/01 09:50:54;;;;;;;9.35;7.68;;;9.30;99.90;;;;;;4995452;28;20121;-60
2022/10/01 09:53:33;;;;;;;8.32;7.03;;;9.30;99.90;;;;;;4993476;28;20026;-60
2022/10/01 09:56:07;;;;;;;11.60;7.75;;;9.30;99.90;;;;;;4996828;28;20029;-58
2022/10/01 09:58:35;;;;;;;9.68;8.75;;;9.30;99.90;;;;;;4996867;28;20112;-59
2022/10/01 10:01:01;;;;;;;12.88;8.10;;;9.20;99.90;;;;;;4996321;28;20026;-59
2022/10/01 10:03:29;;;;;;;8.75;7.95;;;9.20;99.90;;;;;;4999544;28;20030;-60
2022/10/01 10:05:58;;;;;;;9.95;8.55;;;9.20;99.90;;;;;;4998023;28;20822;-59
2022/10/01 10:08:35;;;;;;;9.27;8.35;;;9.20;99.90;;;;;;4999436;28;20027;-60
2022/10/01 10:11:07;;;;;;;13.13;8.95;;;9.20;99.90;;;;;;4996725;28;20073;-58
2022/10/01 10:13:40;;;;;;;8.10;7.30;;;9.20;99.90;;;;;;4998225;28;20517;-58
2022/10/01 10:16:33;;;;;;;6.85;6.15;;;9.20;99.90;;;;;;4995772;28;20490;-60
2022/10/01 10:19:09;;;;;;;8.00;6.10;;;9.30;99.90;;;;;;4992600;28;20470;-61
2022/10/01 10:21:35;;;;;;;6.53;5.78;;;9.30;99.90;;;;;;4998323;28;20022;-59
2022/10/01 10:24:18;;;;;;;6.72;5.50;;;9.20;99.90;;;;;;4994014;28;20560;-60
2022/10/01 10:26:54;;;;;;;8.52;5.80;;;9.20;99.90;;;;;;4999795;28;20064;-59
2022/10/01 10:29:35;;;;;;;7.82;5.47;;;9.20;99.90;;;;;;4999925;28;20125;-60
2022/10/01 10:32:18;;;;;;;5.80;5.30;;;9.20;99.90;;;;;;4998041;28;20038;-61
2022/10/01 10:34:47;;;;;;;6.63;6.03;;;9.20;99.90;;;;;;4998475;28;20701;-60
2022/10/01 10:37:20;;;;;;;7.32;5.90;;;9.30;99.90;;;;;;4992606;28;20037;-61
2022/10/01 10:39:52;;;;;;;7.72;5.95;;;9.20;99.90;;;;;;4999621;28;20046;-60
2022/10/01 10:42:21;;;;;;;9.00;6.63;;;9.20;99.90;;;;;;4996473;28;20053;-60
2022/10/01 10:44:48;;;;;;;7.53;6.82;;;9.30;99.90;;;;;;4996221;28;20806;-60
2022/10/01 10:47:16;;;;;;;8.48;6.80;;;9.20;99.90;;;;;;4996925;28;20034;-60
2022/10/01 10:50:03;;;;;;;7.70;6.88;;;9.30;99.90;;;;;;4996946;28;20057;-59
2022/10/01 10:52:32;;;;;;;7.40;6.70;;;9.20;99.90;;;;;;4996042;28;20042;-60
2022/10/01 10:55:00;;;;;;;7.18;6.47;;;9.30;99.90;;;;;;4997441;28;20022;-60
2022/10/01 10:57:27;;;;;;;7.18;6.53;;;9.30;99.90;;;;;;4997631;28;20184;-60
2022/10/01 11:00:04;;;;;;;8.23;6.20;;;9.30;99.90;;;;;;4994454;28;20039;-60
2022/10/01 11:02:32;;;;;;;8.15;6.38;;;9.30;99.90;;;;;;4994019;28;20085;-60
2022/10/01 11:05:03;;;;;;;8.45;6.03;;;9.30;99.90;;;;;;4999069;28;20569;-60
2022/10/01 11:07:29;;;;;;;8.20;5.85;;;9.30;99.90;;;;;;4996853;28;20040;-60
2022/10/01 11:10:44;;;;;;;7.30;6.38;;;9.40;99.90;;;;;;4994472;28;20018;-60
2022/10/01 11:13:36;;;;;;;6.07;5.30;;;9.40;99.90;;;;;;4996695;28;20026;-59
2022/10/01 11:16:23;;;;;;;5.68;4.80;;;9.50;99.90;;;;;;4996711;28;20112;-60
2022/10/01 11:19:07;;;;;;;5.05;4.65;;;9.50;99.90;;;;;;4997314;28;20030;-60
2022/10/01 11:22:00;;;;;;;6.50;5.00;;;9.60;99.90;;;;;;4994867;28;20518;-61
2022/10/01 11:24:37;;;;;;;7.32;5.13;;;9.60;99.90;;;;;;4997520;28;20114;-61
2022/10/01 11:27:26;;;;;;;6.90;4.55;;;9.70;99.90;;;;;;4998506;28;20033;-60
2022/10/01 11:30:02;;;;;;;5.57;4.53;;;9.70;99.90;;;;;;4992239;28;20057;-60
2022/10/01 11:32:40;;;;;;;4.30;3.90;;;9.80;99.90;;;;;;4993854;28;20491;-61
2022/10/01 11:35:36;;;;;;;5.93;4.65;;;9.80;99.90;;;;;;4996370;28;20027;-60
2022/10/01 11:38:07;;;;;;;4.35;4.05;;;9.70;99.90;;;;;;4994586;28;20109;-60
2022/10/01 11:41:06;;;;;;;4.65;4.30;;;9.70;99.90;;;;;;4992089;28;20117;-60
2022/10/01 11:43:43;;;;;;;12.98;4.60;;;9.70;99.90;;;;;;5002097;28;20034;-60
2022/10/01 11:46:38;;;;;;;5.45;4.30;;;9.70;99.90;;;;;;4995737;28;20499;-61
2022/10/01 11:49:25;;;;;;;7.22;4.43;;;9.70;99.90;;;;;;4989628;28;20076;-60
2022/10/01 11:52:08;;;;;;;4.40;4.00;;;9.80;99.90;;;;;;4992438;28;20088;-60
2022/10/01 11:54:40;;;;;;;4.32;3.78;;;9.80;99.90;;;;;;4992226;28;20042;-60
2022/10/01 12:00:05;;;;;;;6.63;3.70;;;9.90;99.90;;;;;;4995161;28;20041;-60
2022/10/01 12:02:49;;;;;;;4.22;3.70;;;9.90;99.90;;;;;;4994533;28;20037;-60
2022/10/01 12:05:18;;;;;;;4.07;3.67;;;9.90;99.90;;;;;;4992835;28;20028;-60
2022/10/01 12:08:01;;;;;;;4.57;4.10;;;10.00;99.90;;;;;;4994665;28;20034;-60
2022/10/01 12:10:48;;;;;;;3.33;3.03;;;10.00;99.90;;;;;;5012672;28;20786;-60
2022/10/01 12:13:28;;;;;;;4.05;3.65;;;10.00;99.90;;;;;;4996801;28;20095;-59
2022/10/01 12:16:17;;;;;;;3.80;3.50;;;10.00;99.90;;;;;;4995843;28;20185;-59
2022/10/01 12:18:48;;;;;;;4.97;4.38;;;10.10;99.90;;;;;;4999632;28;20034;-60
2022/10/01 12:21:44;;;;;;;4.35;3.95;;;10.10;99.90;;;;;;4998951;28;20061;-61
2022/10/01 12:24:16;;;;;;;4.47;4.07;;;10.10;99.90;;;;;;4995331;28;20117;-60
2022/10/01 12:27:00;;;;;;;4.22;3.83;;;10.20;99.90;;;;;;5000757;28;20026;-60
2022/10/01 12:29:40;;;;;;;4.93;4.53;;;10.30;99.90;;;;;;4999938;28;20049;-61
2022/10/01 12:32:32;;;;;;;4.45;4.03;;;10.40;99.90;;;;;;5002613;28;20510;-60
2022/10/01 12:35:18;;;;;;;4.30;3.72;;;10.50;99.90;;;;;;4995860;28;20030;-61
2022/10/01 12:38:21;;;;;;;3.33;3.03;;;10.60;99.90;;;;;;4995374;28;20031;-60
2022/10/01 12:40:53;;;;;;;4.50;3.08;;;10.60;99.90;;;;;;4999445;28;20580;-60
2022/10/01 12:43:40;;;;;;;5.72;3.60;;;10.70;99.90;;;;;;4998840;28;20030;-60
2022/10/01 12:46:49;;;;;;;4.00;2.88;;;10.70;99.90;;;;;;4996843;28;20034;-60
2022/10/01 12:49:42;;;;;;;3.20;2.88;;;10.80;99.90;;;;;;5001954;28;20038;-60
2022/10/01 12:52:17;;;;;;;3.65;3.35;;;10.80;99.90;;;;;;4996518;28;20030;-60
2022/10/01 12:54:42;;;;;;;3.60;3.10;;;10.80;99.90;;;;;;4995719;28;20088;-60
2022/10/01 12:57:11;;;;;;;2.50;2.30;;;10.80;99.90;;;;;;4997957;28;20429;-60
2022/10/01 13:00:01;;;;;;;1.90;1.80;;;10.80;99.90;;;;;;4994628;28;20038;-59
2022/10/01 13:02:33;;;;;;;3.72;2.38;;;10.90;99.90;;;;;;4994708;28;20479;-61
2022/10/01 13:05:18;;;;;;;3.65;2.20;;;10.90;99.90;;;;;;4998553;28;20034;-60
2022/10/01 13:07:49;;;;;;;5.47;1.60;;;11.10;99.90;;;;;;4998002;28;20069;-61
2022/10/01 13:10:20;;;;;;;1.50;1.40;;;11.20;99.90;;;;;;4999340;28;20030;-60
2022/10/01 13:12:52;;;;;;;2.40;1.55;;;11.30;99.90;;;;;;4994122;28;20030;-60
2022/10/01 13:15:45;;;;;;;1.70;1.60;;;11.30;99.90;;;;;;4999229;28;20072;-60